Time;durP1;ratioP1;P1;durP2;ratioP2;P2;SDS_P1;SDS_P2;PMS_P1;PMS_P2;Temp;Humidity;BMP_temperature;BMP_pressure;BME280_temperature;BME280_humidity;BME280_pressure;Samples;Min_cycle;Max_cycle;Signal;HPM_P1;HPM_P2
2022/08/14 00:00:23;;;;;;;;;;;;;;;;;;6064046;23;8374;-79
2022/08/14 00:02:48;;;;;;;;;;;;;;;;;;6063922;23;8392;-78
2022/08/14 00:05:16;;;;;;;;;;;;;;;;;;6064198;23;8391;-80
2022/08/14 00:07:42;;;;;;;;;;;;;;;;;;6064541;23;8596;-79
2022/08/14 00:10:10;;;;;;;;;;;;;;;;;;6064134;23;9456;-78
2022/08/14 00:12:38;;;;;;;;;;;;;;;;;;6063989;23;7544;-78
2022/08/14 00:15:08;;;;;;;;;;;;;;;;;;6064090;23;7325;-79
2022/08/14 00:17:33;;;;;;;;;;;;;;;;;;6064728;23;8417;-78
2022/08/14 00:19:59;;;;;;;;;;;;;;;;;;6063966;23;8425;-79
2022/08/14 00:22:24;;;;;;;;;;;;;;;;;;6064111;23;8785;-80
2022/08/14 00:24:50;;;;;;;;;;;;;;;;;;6064037;23;8630;-79
2022/08/14 00:27:15;;;;;;;;;;;;;;;;;;6064004;23;7475;-81
2022/08/14 00:29:41;;;;;;;;;;;;;;;;;;6064421;23;8474;-79
2022/08/14 00:32:07;;;;;;;;;;;;;;;;;;6063964;23;8724;-78
2022/08/14 00:34:33;;;;;;;;;;;;;;;;;;6064129;23;8830;-79
2022/08/14 00:36:58;;;;;;;;;;;;;;;;;;6064351;23;8539;-78
2022/08/14 00:39:24;;;;;;;;;;;;;;;;;;6063834;23;8579;-79
2022/08/14 00:41:49;;;;;;;;;;;;;;;;;;6063877;23;8884;-79
2022/08/14 00:44:16;;;;;;;;;;;;;;;;;;6065406;23;8466;-78
2022/08/14 00:46:41;;;;;;;;;;;;;;;;;;6065469;23;8461;-80
2022/08/14 00:49:07;;;;;;;;;;;;;;;;;;6065663;23;8269;-78
2022/08/14 00:51:33;;;;;;;;;;;;;;;;;;6065690;23;8481;-79
2022/08/14 00:53:59;;;;;;;;;;;;;;;;;;6065648;23;8406;-79
2022/08/14 00:56:26;;;;;;;;;;;;;;;;;;6065347;23;7157;-77
2022/08/14 00:58:53;;;;;;;;;;;;;;;;;;6065483;23;8535;-79
2022/08/14 01:01:19;;;;;;;;;;;;;;;;;;6065170;23;8817;-80
2022/08/14 01:03:45;;;;;;;;;;;;;;;;;;6065505;23;8712;-80
2022/08/14 01:06:15;;;;;;;;;;;;;;;;;;6065294;23;8993;-80
2022/08/14 01:08:42;;;;;;;;;;;;;;;;;;6065549;23;9009;-81
2022/08/14 01:11:15;;;;;;;;;;;;;;;;;;6065100;23;7044;-79
2022/08/14 01:13:43;;;;;;;;;;;;;;;;;;6065419;23;7132;-79
2022/08/14 01:16:11;;;;;;;;;;;;;;;;;;6065654;23;8687;-80
2022/08/14 01:21:30;;;;;;;;;;;;;;;;;;6042695;23;6929;-79
2022/08/14 01:23:55;;;;;;;;;;;;;;;;;;6065959;23;8479;-78
2022/08/14 01:26:22;;;;;;;;;;;;;;;;;;6065251;23;8615;-79
2022/08/14 01:28:54;;;;;;;;;;;;;;;;;;6065705;23;7169;-78
2022/08/14 01:31:21;;;;;;;;;;;;;;;;;;6065135;23;8451;-78
2022/08/14 01:33:49;;;;;;;;;;;;;;;;;;6066215;23;8586;-78
2022/08/14 01:36:17;;;;;;;;;;;;;;;;;;6065643;23;9324;-78
2022/08/14 01:38:47;;;;;;;;;;;;;;;;;;6064984;23;8548;-79
2022/08/14 01:41:19;;;;;;;;;;;;;;;;;;6065276;23;8682;-79
2022/08/14 01:43:50;;;;;;;;;;;;;;;;;;6065795;23;8797;-79
2022/08/14 01:46:22;;;;;;;;;;;;;;;;;;6041102;23;7175;-79
2022/08/14 01:48:50;;;;;;;;;;;;;;;;;;6065343;23;8788;-77
2022/08/14 01:51:21;;;;;;;;;;;;;;;;;;6065559;23;9307;-80
2022/08/14 01:53:49;;;;;;;;;;;;;;;;;;6064860;23;8481;-78
2022/08/14 01:56:19;;;;;;;;;;;;;;;;;;6065699;23;7438;-79
2022/08/14 01:58:48;;;;;;;;;;;;;;;;;;6064818;23;8738;-77
2022/08/14 02:01:19;;;;;;;;;;;;;;;;;;6065023;23;7039;-78
2022/08/14 02:03:45;;;;;;;;;;;;;;;;;;6064928;23;8679;-76
2022/08/14 02:06:12;;;;;;;;;;;;;;;;;;6064946;23;7214;-78
2022/08/14 02:08:38;;;;;;;;;;;;;;;;;;6065104;23;8414;-79
2022/08/14 02:14:10;;;;;;;;;;;;;;;;;;6025902;23;7179;-78
2022/08/14 02:16:39;;;;;;;;;;;;;;;;;;6064927;23;7058;-79
2022/08/14 02:19:10;;;;;;;;;;;;;;;;;;6064899;23;9076;-79
2022/08/14 02:21:37;;;;;;;;;;;;;;;;;;6064609;23;8449;-80
2022/08/14 02:24:04;;;;;;;;;;;;;;;;;;6064792;23;8404;-79
2022/08/14 02:26:31;;;;;;;;;;;;;;;;;;6064674;23;8752;-79
2022/08/14 02:28:58;;;;;;;;;;;;;;;;;;6065433;23;8446;-78
2022/08/14 02:31:26;;;;;;;;;;;;;;;;;;6065021;23;8688;-79
2022/08/14 02:33:52;;;;;;;;;;;;;;;;;;6066229;23;7157;-79
2022/08/14 02:36:17;;;;;;;;;;;;;;;;;;6064533;23;8627;-78
2022/08/14 02:38:42;;;;;;;;;;;;;;;;;;6064776;23;7103;-79
2022/08/14 02:41:11;;;;;;;;;;;;;;;;;;6064458;23;7032;-81
2022/08/14 02:43:38;;;;;;;;;;;;;;;;;;6064687;23;8483;-81
2022/08/14 02:46:09;;;;;;;;;;;;;;;;;;6064972;23;7024;-81
2022/08/14 02:48:38;;;;;;;;;;;;;;;;;;6064985;23;8582;-80
2022/08/14 02:51:09;;;;;;;;;;;;;;;;;;6064491;23;8804;-81
2022/08/14 02:53:38;;;;;;;;;;;;;;;;;;6064555;23;8981;-81
2022/08/14 02:56:04;;;;;;;;;;;;;;;;;;6064294;23;9097;-80
2022/08/14 02:58:30;;;;;;;;;;;;;;;;;;6064519;23;7016;-80
2022/08/14 03:00:55;;;;;;;;;;;;;;;;;;6064248;23;7138;-80
2022/08/14 03:03:22;;;;;;;;;;;;;;;;;;6064390;23;8350;-81
2022/08/14 03:05:50;;;;;;;;;;;;;;;;;;6064454;23;9246;-80
2022/08/14 03:08:17;;;;;;;;;;;;;;;;;;6064720;23;8538;-81
2022/08/14 03:10:45;;;;;;;;;;;;;;;;;;6064888;23;7123;-80
2022/08/14 03:13:10;;;;;;;;;;;;;;;;;;6064494;23;7064;-79
2022/08/14 03:15:56;;;;;;;;;;;;;;;;;;6064153;23;8469;-80
2022/08/14 03:18:23;;;;;;;;;;;;;;;;;;6041739;23;7355;-80
2022/08/14 03:20:49;;;;;;;;;;;;;;;;;;6064408;23;8807;-80
2022/08/14 03:23:15;;;;;;;;;;;;;;;;;;6064433;23;8378;-80
2022/08/14 03:25:41;;;;;;;;;;;;;;;;;;6064302;23;7146;-79
2022/08/14 03:28:08;;;;;;;;;;;;;;;;;;6064331;23;8461;-78
2022/08/14 03:30:34;;;;;;;;;;;;;;;;;;6064132;23;7022;-79
2022/08/14 03:33:01;;;;;;;;;;;;;;;;;;6064604;23;7170;-79
2022/08/14 03:35:29;;;;;;;;;;;;;;;;;;6064133;23;8738;-80
2022/08/14 03:37:55;;;;;;;;;;;;;;;;;;6064410;23;7173;-80
2022/08/14 03:40:21;;;;;;;;;;;;;;;;;;6064170;23;8313;-80
2022/08/14 03:42:50;;;;;;;;;;;;;;;;;;6064484;23;7173;-80
2022/08/14 03:45:17;;;;;;;;;;;;;;;;;;6064153;23;7200;-80
2022/08/14 03:47:43;;;;;;;;;;;;;;;;;;6064239;23;6806;-80
2022/08/14 03:50:10;;;;;;;;;;;;;;;;;;6064322;23;7033;-79
2022/08/14 03:52:42;;;;;;;;;;;;;;;;;;6064932;23;9291;-80
2022/08/14 03:55:11;;;;;;;;;;;;;;;;;;6064020;23;8476;-80
2022/08/14 03:57:37;;;;;;;;;;;;;;;;;;6064271;23;8841;-80
2022/08/14 04:00:12;;;;;;;;;;;;;;;;;;6064155;23;8529;-81
2022/08/14 04:02:39;;;;;;;;;;;;;;;;;;6063786;23;9161;-80
2022/08/14 04:05:09;;;;;;;;;;;;;;;;;;6064157;23;8486;-80
2022/08/14 04:07:34;;;;;;;;;;;;;;;;;;6065229;23;8695;-80
2022/08/14 04:10:00;;;;;;;;;;;;;;;;;;6064218;23;8375;-81
2022/08/14 04:12:26;;;;;;;;;;;;;;;;;;6064490;23;8405;-80
2022/08/14 04:14:52;;;;;;;;;;;;;;;;;;6064540;23;7166;-79
2022/08/14 04:17:19;;;;;;;;;;;;;;;;;;6064828;23;7146;-81
2022/08/14 04:19:45;;;;;;;;;;;;;;;;;;6065770;23;8408;-80
2022/08/14 04:22:12;;;;;;;;;;;;;;;;;;6065807;23;8431;-80
2022/08/14 04:24:39;;;;;;;;;;;;;;;;;;6066170;23;7055;-78
2022/08/14 04:27:09;;;;;;;;;;;;;;;;;;6066169;23;8862;-81
2022/08/14 04:29:41;;;;;;;;;;;;;;;;;;6065773;23;8422;-81
2022/08/14 04:32:09;;;;;;;;;;;;;;;;;;6065604;23;8903;-78
2022/08/14 04:34:36;;;;;;;;;;;;;;;;;;6065516;23;8795;-79
2022/08/14 04:45:14;;;;;;;;;;;;;;;;;;6042461;23;6961;-78
2022/08/14 04:50:26;;;;;;;;;;;;;;;;;;6043024;23;6896;-81
2022/08/14 04:52:51;;;;;;;;;;;;;;;;;;6065233;23;8305;-79
2022/08/14 04:55:17;;;;;;;;;;;;;;;;;;6065270;23;8652;-80
2022/08/14 04:57:42;;;;;;;;;;;;;;;;;;6057912;23;7242;-78
2022/08/14 05:00:08;;;;;;;;;;;;;;;;;;6060676;23;8503;-78
2022/08/14 05:02:34;;;;;;;;;;;;;;;;;;6064086;23;8722;-78
2022/08/14 05:04:59;;;;;;;;;;;;;;;;;;6063775;23;7183;-79
2022/08/14 05:07:25;;;;;;;;;;;;;;;;;;6064366;23;8718;-81
2022/08/14 05:09:50;;;;;;;;;;;;;;;;;;6063517;23;8395;-80
2022/08/14 05:12:16;;;;;;;;;;;;;;;;;;6062951;23;8819;-78
2022/08/14 05:14:42;;;;;;;;;;;;;;;;;;6062927;23;8399;-79
2022/08/14 05:17:08;;;;;;;;;;;;;;;;;;6063288;23;8491;-81
2022/08/14 05:19:33;;;;;;;;;;;;;;;;;;6063229;23;8368;-80
2022/08/14 05:22:06;;;;;;;;;;;;;;;;;;6063067;23;8428;-79
2022/08/14 05:24:32;;;;;;;;;;;;;;;;;;6040284;23;7037;-79
2022/08/14 05:26:58;;;;;;;;;;;;;;;;;;6062696;23;8481;-78
2022/08/14 05:29:24;;;;;;;;;;;;;;;;;;6062764;23;7037;-79
2022/08/14 05:31:50;;;;;;;;;;;;;;;;;;6063515;23;7265;-80
2022/08/14 05:34:15;;;;;;;;;;;;;;;;;;6063494;23;8375;-78
2022/08/14 05:36:41;;;;;;;;;;;;;;;;;;6063866;23;8405;-78
2022/08/14 05:39:07;;;;;;;;;;;;;;;;;;6062558;23;8443;-80
2022/08/14 05:41:33;;;;;;;;;;;;;;;;;;6062118;23;8683;-79
2022/08/14 05:43:59;;;;;;;;;;;;;;;;;;6063957;23;8705;-78
2022/08/14 05:46:24;;;;;;;;;;;;;;;;;;6064362;23;8835;-80
2022/08/14 05:48:55;;;;;;;;;;;;;;;;;;6063600;23;8441;-80
2022/08/14 05:51:22;;;;;;;;;;;;;;;;;;6063121;23;7261;-76
2022/08/14 05:53:48;;;;;;;;;;;;;;;;;;6062300;23;7235;-80
2022/08/14 05:56:14;;;;;;;;;;;;;;;;;;6062669;23;8465;-79
2022/08/14 05:58:39;;;;;;;;;;;;;;;;;;6062482;23;8410;-80
2022/08/14 06:01:05;;;;;;;;;;;;;;;;;;6063989;23;8333;-81
2022/08/14 06:03:31;;;;;;;;;;;;;;;;;;6064449;23;7158;-80
2022/08/14 06:05:56;;;;;;;;;;;;;;;;;;6064895;23;8946;-78
2022/08/14 06:08:27;;;;;;;;;;;;;;;;;;6064745;23;8428;-78
2022/08/14 06:10:54;;;;;;;;;;;;;;;;;;6064629;23;7172;-79
2022/08/14 06:13:20;;;;;;;;;;;;;;;;;;6064608;23;8613;-79
2022/08/14 06:15:53;;;;;;;;;;;;;;;;;;6064929;23;8745;-73
2022/08/14 06:18:34;;;;;;;;;;;;;;;;;;6067728;23;7165;-80
2022/08/14 06:21:03;;;;;;;;;;;;;;;;;;6041859;23;7112;-80
2022/08/14 06:23:29;;;;;;;;;;;;;;;;;;6015974;23;8388;-80
2022/08/14 06:25:55;;;;;;;;;;;;;;;;;;6016399;23;8399;-80
2022/08/14 06:28:22;;;;;;;;;;;;;;;;;;6016121;23;8607;-80
2022/08/14 06:30:49;;;;;;;;;;;;;;;;;;6016000;23;8604;-80
2022/08/14 06:33:16;;;;;;;;;;;;;;;;;;6016383;23;7344;-80
2022/08/14 06:35:41;;;;;;;;;;;;;;;;;;6015907;23;7198;-81
2022/08/14 06:38:07;;;;;;;;;;;;;;;;;;6015913;23;8456;-79
2022/08/14 06:40:34;;;;;;;;;;;;;;;;;;6015769;23;8570;-79
2022/08/14 06:43:01;;;;;;;;;;;;;;;;;;6016094;23;7126;-80
2022/08/14 06:45:28;;;;;;;;;;;;;;;;;;6015925;23;8503;-75
2022/08/14 06:47:54;;;;;;;;;;;;;;;;;;6015989;23;8806;-79
2022/08/14 06:50:21;;;;;;;;;;;;;;;;;;6015760;23;8930;-79
2022/08/14 06:52:47;;;;;;;;;;;;;;;;;;6035544;23;8427;-77
2022/08/14 06:55:16;;;;;;;;;;;;;;;;;;6062892;23;8484;-78
2022/08/14 06:57:44;;;;;;;;;;;;;;;;;;6064198;23;9001;-77
2022/08/14 07:00:12;;;;;;;;;;;;;;;;;;6064476;23;8927;-78
2022/08/14 07:08:28;;;;;;;;;;;;;;;;;;6041855;23;6893;-78
2022/08/14 07:10:55;;;;;;;;;;;;;;;;;;6064279;23;8855;-76
2022/08/14 07:13:23;;;;;;;;;;;;;;;;;;6064351;23;8826;-79
2022/08/14 07:15:50;;;;;;;;;;;;;;;;;;6064600;23;9495;-81
2022/08/14 07:18:23;;;;;;;;;;;;;;;;;;6064083;23;8400;-77
2022/08/14 07:20:50;;;;;;;;;;;;;;;;;;6064557;23;8663;-78
2022/08/14 07:23:16;;;;;;;;;;;;;;;;;;6064396;23;8413;-80
2022/08/14 07:25:43;;;;;;;;;;;;;;;;;;6064577;23;8747;-80
2022/08/14 07:28:10;;;;;;;;;;;;;;;;;;6064417;23;8521;-79
2022/08/14 07:30:35;;;;;;;;;;;;;;;;;;6063919;23;8853;-80
2022/08/14 07:33:02;;;;;;;;;;;;;;;;;;6062800;23;8396;-79
2022/08/14 07:35:28;;;;;;;;;;;;;;;;;;6064173;23;7193;-81
2022/08/14 07:37:53;;;;;;;;;;;;;;;;;;6064157;23;7025;-79
2022/08/14 07:40:19;;;;;;;;;;;;;;;;;;6062688;23;8599;-80
2022/08/14 07:42:45;;;;;;;;;;;;;;;;;;6065333;23;8983;-77
2022/08/14 07:45:10;;;;;;;;;;;;;;;;;;6063932;23;7165;-79
2022/08/14 07:47:43;;;;;;;;;;;;;;;;;;6064428;23;7608;-77
2022/08/14 07:50:19;;;;;;;;;;;;;;;;;;6065126;23;7885;-75
2022/08/14 07:52:46;;;;;;;;;;;;;;;;;;6064846;23;9219;-79
2022/08/14 07:55:14;;;;;;;;;;;;;;;;;;6065915;23;7061;-79
2022/08/14 07:57:40;;;;;;;;;;;;;;;;;;6064801;23;8451;-80
2022/08/14 08:00:12;;;;;;;;;;;;;;;;;;6065722;23;8602;-79
2022/08/14 08:02:43;;;;;;;;;;;;;;;;;;6066030;23;8955;-79
2022/08/14 08:05:09;;;;;;;;;;;;;;;;;;6065885;23;7299;-78
2022/08/14 08:07:36;;;;;;;;;;;;;;;;;;6065768;23;8508;-79
2022/08/14 08:10:29;;;;;;;;;;;;;;;;;;6065585;23;8396;-78
2022/08/14 08:12:52;;;;;;;;;;;;;;;;;;6041928;23;7127;-79
2022/08/14 08:15:18;;;;;;;;;;;;;;;;;;6065845;23;7261;-78
2022/08/14 08:17:43;;;;;;;;;;;;;;;;;;6064950;23;8577;-75
2022/08/14 08:20:17;;;;;;;;;;;;;;;;;;6065781;23;8446;-77
2022/08/14 08:22:43;;;;;;;;;;;;;;;;;;6065608;23;9214;-79
2022/08/14 08:25:09;;;;;;;;;;;;;;;;;;6065717;23;8389;-77
2022/08/14 08:27:34;;;;;;;;;;;;;;;;;;6065565;23;8415;-80
2022/08/14 08:30:08;;;;;;;;;;;;;;;;;;6065592;23;8468;-79
2022/08/14 08:32:38;;;;;;;;;;;;;;;;;;6065477;23;8430;-80
2022/08/14 08:35:04;;;;;;;;;;;;;;;;;;6066053;23;8731;-76
2022/08/14 08:37:34;;;;;;;;;;;;;;;;;;6065515;23;8634;-75
2022/08/14 08:39:59;;;;;;;;;;;;;;;;;;6065696;23;8741;-77
2022/08/14 08:42:25;;;;;;;;;;;;;;;;;;6065346;23;8593;-76
2022/08/14 08:44:54;;;;;;;;;;;;;;;;;;6065466;23;7064;-79
2022/08/14 08:47:20;;;;;;;;;;;;;;;;;;6065997;23;8780;-79
2022/08/14 08:49:46;;;;;;;;;;;;;;;;;;6065437;23;8672;-77
2022/08/14 08:52:11;;;;;;;;;;;;;;;;;;6065429;23;8833;-78
2022/08/14 08:54:38;;;;;;;;;;;;;;;;;;6065392;23;8496;-79
2022/08/14 08:57:10;;;;;;;;;;;;;;;;;;6065419;23;8479;-82
2022/08/14 08:59:36;;;;;;;;;;;;;;;;;;6065659;23;8484;-80
2022/08/14 09:02:06;;;;;;;;;;;;;;;;;;6065164;23;8425;-79
2022/08/14 09:04:40;;;;;;;;;;;;;;;;;;6064835;23;8470;-79
2022/08/14 09:07:06;;;;;;;;;;;;;;;;;;6065555;23;8910;-79
2022/08/14 09:09:33;;;;;;;;;;;;;;;;;;6065351;23;8638;-81
2022/08/14 09:12:02;;;;;;;;;;;;;;;;;;6065448;23;8505;-81
2022/08/14 09:14:29;;;;;;;;;;;;;;;;;;6065462;23;7205;-80
2022/08/14 09:16:58;;;;;;;;;;;;;;;;;;6065115;23;8553;-80
2022/08/14 09:19:25;;;;;;;;;;;;;;;;;;6065226;23;8861;-80
2022/08/14 09:21:52;;;;;;;;;;;;;;;;;;6065217;23;7100;-77
2022/08/14 09:24:19;;;;;;;;;;;;;;;;;;6065069;23;9448;-76
2022/08/14 09:26:44;;;;;;;;;;;;;;;;;;6065109;23;8485;-78
2022/08/14 09:29:12;;;;;;;;;;;;;;;;;;6065146;23;7064;-78
2022/08/14 09:31:48;;;;;;;;;;;;;;;;;;6065109;23;8424;-79
2022/08/14 09:34:19;;;;;;;;;;;;;;;;;;6065863;23;8533;-78
2022/08/14 09:37:10;;;;;;;;;;;;;;;;;;6040540;23;8546;-76
2022/08/14 09:39:52;;;;;;;;;;;;;;;;;;6064532;23;8470;-79
2022/08/14 09:42:36;;;;;;;;;;;;;;;;;;6035579;23;7213;-80
2022/08/14 09:45:02;;;;;;;;;;;;;;;;;;6040717;23;8470;-79
2022/08/14 09:47:45;;;;;;;;;;;;;;;;;;6040416;23;8573;-78
2022/08/14 09:50:27;;;;;;;;;;;;;;;;;;6063870;23;7052;-80
2022/08/14 09:52:57;;;;;;;;;;;;;;;;;;6040001;23;7031;-79
2022/08/14 09:55:25;;;;;;;;;;;;;;;;;;6064338;23;8405;-78
2022/08/14 09:57:51;;;;;;;;;;;;;;;;;;6063666;23;8508;-78
2022/08/14 10:00:18;;;;;;;;;;;;;;;;;;6064246;23;8508;-79
2022/08/14 10:02:52;;;;;;;;;;;;;;;;;;6064519;23;8390;-79
2022/08/14 10:05:28;;;;;;;;;;;;;;;;;;6065284;23;8876;-79
2022/08/14 10:07:55;;;;;;;;;;;;;;;;;;6065111;23;8635;-77
2022/08/14 10:10:32;;;;;;;;;;;;;;;;;;6064666;23;8758;-81
2022/08/14 10:13:00;;;;;;;;;;;;;;;;;;6063798;23;9453;-82
2022/08/14 10:15:28;;;;;;;;;;;;;;;;;;6064552;23;8675;-79
2022/08/14 10:18:02;;;;;;;;;;;;;;;;;;6042810;23;7231;-81
2022/08/14 10:20:32;;;;;;;;;;;;;;;;;;6040366;23;8801;-79
2022/08/14 10:23:07;;;;;;;;;;;;;;;;;;6064644;23;8888;-79
2022/08/14 10:25:38;;;;;;;;;;;;;;;;;;6064680;23;8625;-79
2022/08/14 10:28:04;;;;;;;;;;;;;;;;;;6064609;23;8473;-78
2022/08/14 10:30:37;;;;;;;;;;;;;;;;;;6064367;23;7109;-79
2022/08/14 10:33:02;;;;;;;;;;;;;;;;;;6064513;23;8470;-80
2022/08/14 10:35:38;;;;;;;;;;;;;;;;;;6064821;23;6896;-80
2022/08/14 10:38:03;;;;;;;;;;;;;;;;;;6064360;23;8476;-82
2022/08/14 10:40:31;;;;;;;;;;;;;;;;;;6064473;23;8472;-76
2022/08/14 10:42:56;;;;;;;;;;;;;;;;;;6064782;23;8449;-80
2022/08/14 10:45:24;;;;;;;;;;;;;;;;;;6064329;23;6871;-78
2022/08/14 10:47:54;;;;;;;;;;;;;;;;;;6064421;23;8499;-79
2022/08/14 10:50:30;;;;;;;;;;;;;;;;;;6064386;23;7218;-79
2022/08/14 10:52:58;;;;;;;;;;;;;;;;;;6064368;23;8508;-79
2022/08/14 10:55:30;;;;;;;;;;;;;;;;;;6064412;23;8482;-78
2022/08/14 10:57:56;;;;;;;;;;;;;;;;;;6064282;23;7231;-79
2022/08/14 11:00:27;;;;;;;;;;;;;;;;;;6064385;23;8834;-79
2022/08/14 11:03:01;;;;;;;;;;;;;;;;;;6063911;23;9438;-78
2022/08/14 11:05:44;;;;;;;;;;;;;;;;;;6064236;23;9496;-78
2022/08/14 11:08:12;;;;;;;;;;;;;;;;;;6064401;23;8849;-79
2022/08/14 11:10:38;;;;;;;;;;;;;;;;;;6064924;23;7589;-77
2022/08/14 11:13:03;;;;;;;;;;;;;;;;;;6040175;23;8549;-78
2022/08/14 11:15:29;;;;;;;;;;;;;;;;;;6064382;23;8634;-81
2022/08/14 11:17:55;;;;;;;;;;;;;;;;;;6064414;23;8517;-81
2022/08/14 11:20:25;;;;;;;;;;;;;;;;;;6064139;23;8725;-80
2022/08/14 11:22:53;;;;;;;;;;;;;;;;;;6064337;23;8657;-79
2022/08/14 11:25:22;;;;;;;;;;;;;;;;;;6064194;23;8501;-78
2022/08/14 11:27:49;;;;;;;;;;;;;;;;;;6063795;23;8671;-80
2022/08/14 11:30:18;;;;;;;;;;;;;;;;;;6064227;23;8441;-78
2022/08/14 11:32:47;;;;;;;;;;;;;;;;;;6064352;23;8862;-78
2022/08/14 11:35:15;;;;;;;;;;;;;;;;;;6064103;23;8913;-79
2022/08/14 11:37:50;;;;;;;;;;;;;;;;;;6064091;23;8519;-79
2022/08/14 11:40:16;;;;;;;;;;;;;;;;;;6040059;23;8835;-77
2022/08/14 11:42:45;;;;;;;;;;;;;;;;;;6064406;23;8580;-79
2022/08/14 11:45:10;;;;;;;;;;;;;;;;;;6064012;23;8549;-79
2022/08/14 11:47:36;;;;;;;;;;;;;;;;;;6064083;23;8492;-78
2022/08/14 11:50:12;;;;;;;;;;;;;;;;;;6063983;23;8491;-79
2022/08/14 11:52:38;;;;;;;;;;;;;;;;;;6063980;23;9166;-78
2022/08/14 11:55:07;;;;;;;;;;;;;;;;;;6064436;23;8880;-78
2022/08/14 11:57:35;;;;;;;;;;;;;;;;;;6064012;23;8523;-78
2022/08/14 12:00:03;;;;;;;;;;;;;;;;;;6063845;23;9175;-78
2022/08/14 12:02:29;;;;;;;;;;;;;;;;;;6063601;23;7232;-77
2022/08/14 12:04:54;;;;;;;;;;;;;;;;;;6063667;23;8588;-77
2022/08/14 12:07:20;;;;;;;;;;;;;;;;;;6064149;23;8852;-78
2022/08/14 12:09:50;;;;;;;;;;;;;;;;;;6064506;23;7111;-79
2022/08/14 12:12:21;;;;;;;;;;;;;;;;;;6064099;23;8661;-78
2022/08/14 12:14:58;;;;;;;;;;;;;;;;;;6061664;23;8670;-78
2022/08/14 12:17:30;;;;;;;;;;;;;;;;;;6061988;23;9439;-78
2022/08/14 12:19:59;;;;;;;;;;;;;;;;;;6061660;23;8514;-77
2022/08/14 12:22:39;;;;;;;;;;;;;;;;;;6061888;23;8551;-77
2022/08/14 12:25:06;;;;;;;;;;;;;;;;;;6061949;23;8433;-77
2022/08/14 12:27:36;;;;;;;;;;;;;;;;;;6062687;23;7094;-78
2022/08/14 12:30:01;;;;;;;;;;;;;;;;;;6063842;23;8665;-77
2022/08/14 12:32:37;;;;;;;;;;;;;;;;;;6063894;23;8798;-78
2022/08/14 12:35:03;;;;;;;;;;;;;;;;;;6063932;23;8861;-80
2022/08/14 12:37:30;;;;;;;;;;;;;;;;;;6058796;23;8975;-78
2022/08/14 12:40:07;;;;;;;;;;;;;;;;;;6064437;23;8512;-79
2022/08/14 12:42:34;;;;;;;;;;;;;;;;;;6064789;23;8521;-78
2022/08/14 12:45:00;;;;;;;;;;;;;;;;;;6063793;23;8680;-81
2022/08/14 12:47:27;;;;;;;;;;;;;;;;;;6064929;23;8773;-78
2022/08/14 12:49:53;;;;;;;;;;;;;;;;;;6064145;23;8565;-80
2022/08/14 12:52:26;;;;;;;;;;;;;;;;;;6064637;23;8568;-80
2022/08/14 12:55:04;;;;;;;;;;;;;;;;;;6064334;23;8543;-78
2022/08/14 12:57:38;;;;;;;;;;;;;;;;;;6065283;23;8539;-78
2022/08/14 13:00:18;;;;;;;;;;;;;;;;;;6063764;23;8858;-79
2022/08/14 13:02:46;;;;;;;;;;;;;;;;;;6068826;23;8771;-74
2022/08/14 13:05:13;;;;;;;;;;;;;;;;;;6068941;23;8552;-78
2022/08/14 13:07:40;;;;;;;;;;;;;;;;;;6068319;23;6933;-78
2022/08/14 13:10:07;;;;;;;;;;;;;;;;;;6063656;23;8496;-78
2022/08/14 13:12:33;;;;;;;;;;;;;;;;;;6063656;23;7485;-75
2022/08/14 13:14:59;;;;;;;;;;;;;;;;;;6061346;23;8813;-79
2022/08/14 13:17:26;;;;;;;;;;;;;;;;;;6062768;23;8577;-74
2022/08/14 13:19:54;;;;;;;;;;;;;;;;;;6061991;23;8714;-77
2022/08/14 13:22:25;;;;;;;;;;;;;;;;;;6062176;23;8440;-78
2022/08/14 13:24:52;;;;;;;;;;;;;;;;;;6061027;23;8500;-76
2022/08/14 13:27:21;;;;;;;;;;;;;;;;;;6064129;23;8497;-78
2022/08/14 13:29:51;;;;;;;;;;;;;;;;;;6060982;23;8449;-74
2022/08/14 13:32:17;;;;;;;;;;;;;;;;;;6062094;23;8755;-76
2022/08/14 13:34:44;;;;;;;;;;;;;;;;;;6061571;23;8460;-80
2022/08/14 13:37:10;;;;;;;;;;;;;;;;;;6061476;23;8526;-79
2022/08/14 13:39:35;;;;;;;;;;;;;;;;;;6063949;23;8453;-79
2022/08/14 13:42:06;;;;;;;;;;;;;;;;;;6063920;23;8410;-79
2022/08/14 13:44:33;;;;;;;;;;;;;;;;;;6063908;23;8517;-79
2022/08/14 13:46:59;;;;;;;;;;;;;;;;;;6065206;23;8986;-77
2022/08/14 13:49:24;;;;;;;;;;;;;;;;;;6063653;23;8494;-78
2022/08/14 13:51:52;;;;;;;;;;;;;;;;;;6063095;23;8675;-78
2022/08/14 13:54:19;;;;;;;;;;;;;;;;;;6064305;23;7270;-78
2022/08/14 13:56:46;;;;;;;;;;;;;;;;;;6063413;23;8776;-80
2022/08/14 13:59:12;;;;;;;;;;;;;;;;;;6063469;23;8846;-80
2022/08/14 14:01:40;;;;;;;;;;;;;;;;;;6063521;23;8843;-80
2022/08/14 14:04:24;;;;;;;;;;;;;;;;;;6074310;23;6933;-78
2022/08/14 14:06:50;;;;;;;;;;;;;;;;;;6063002;23;6934;-78
2022/08/14 14:09:27;;;;;;;;;;;;;;;;;;6063930;23;8486;-78
2022/08/14 14:11:54;;;;;;;;;;;;;;;;;;6063337;23;7492;-77
2022/08/14 14:14:20;;;;;;;;;;;;;;;;;;6063672;23;8495;-78
2022/08/14 14:16:46;;;;;;;;;;;;;;;;;;6063086;23;8436;-78
2022/08/14 14:19:16;;;;;;;;;;;;;;;;;;6064229;23;8518;-76
2022/08/14 14:21:42;;;;;;;;;;;;;;;;;;6064217;23;6933;-77
2022/08/14 14:24:11;;;;;;;;;;;;;;;;;;6066865;23;7227;-78
2022/08/14 14:26:38;;;;;;;;;;;;;;;;;;6067129;23;8429;-80
2022/08/14 14:29:05;;;;;;;;;;;;;;;;;;6065644;23;8552;-75
2022/08/14 14:31:32;;;;;;;;;;;;;;;;;;6065917;23;8481;-75
2022/08/14 14:34:02;;;;;;;;;;;;;;;;;;6065511;23;8396;-77
2022/08/14 14:36:29;;;;;;;;;;;;;;;;;;6064997;23;8396;-81
2022/08/14 14:39:00;;;;;;;;;;;;;;;;;;6065445;23;7222;-74
2022/08/14 14:41:27;;;;;;;;;;;;;;;;;;6067301;23;8656;-80
2022/08/14 14:43:54;;;;;;;;;;;;;;;;;;6071819;23;8745;-79
2022/08/14 14:46:21;;;;;;;;;;;;;;;;;;6076047;23;8595;-77
2022/08/14 14:48:49;;;;;;;;;;;;;;;;;;6054558;23;7112;-80
2022/08/14 14:51:31;;;;;;;;;;;;;;;;;;6073307;23;8404;-81
2022/08/14 14:54:07;;;;;;;;;;;;;;;;;;6070294;23;7088;-79
2022/08/14 14:56:36;;;;;;;;;;;;;;;;;;6075046;23;8473;-76
2022/08/14 14:59:01;;;;;;;;;;;;;;;;;;6071052;23;8532;-80
2022/08/14 15:01:27;;;;;;;;;;;;;;;;;;6062251;23;8475;-80
2022/08/14 15:03:53;;;;;;;;;;;;;;;;;;6063528;23;8912;-81
2022/08/14 15:06:20;;;;;;;;;;;;;;;;;;6060994;23;8537;-81
2022/08/14 15:08:45;;;;;;;;;;;;;;;;;;6060582;23;8490;-81
2022/08/14 15:11:11;;;;;;;;;;;;;;;;;;6062183;23;7104;-80
2022/08/14 15:13:36;;;;;;;;;;;;;;;;;;6060914;23;7210;-79
2022/08/14 15:16:03;;;;;;;;;;;;;;;;;;6060841;23;8432;-75
2022/08/14 15:18:28;;;;;;;;;;;;;;;;;;6062851;23;8534;-79
2022/08/14 15:21:00;;;;;;;;;;;;;;;;;;6062782;23;8475;-72
2022/08/14 15:23:25;;;;;;;;;;;;;;;;;;6062348;23;8499;-78
2022/08/14 15:25:51;;;;;;;;;;;;;;;;;;6062680;23;8778;-77
2022/08/14 15:28:17;;;;;;;;;;;;;;;;;;6062522;23;8633;-78
2022/08/14 15:30:44;;;;;;;;;;;;;;;;;;6062395;23;8871;-80
2022/08/14 15:33:10;;;;;;;;;;;;;;;;;;6063479;23;8748;-80
2022/08/14 15:35:36;;;;;;;;;;;;;;;;;;6062325;23;8558;-79
2022/08/14 15:38:09;;;;;;;;;;;;;;;;;;6063667;23;8577;-79
2022/08/14 15:40:39;;;;;;;;;;;;;;;;;;6062381;23;7086;-80
2022/08/14 15:43:08;;;;;;;;;;;;;;;;;;6061766;23;8860;-79
2022/08/14 15:45:33;;;;;;;;;;;;;;;;;;6061597;23;8934;-80
2022/08/14 15:48:00;;;;;;;;;;;;;;;;;;6061701;23;9476;-79
2022/08/14 15:50:27;;;;;;;;;;;;;;;;;;6062911;23;8489;-79
2022/08/14 15:52:53;;;;;;;;;;;;;;;;;;6062280;23;8893;-79
2022/08/14 15:55:21;;;;;;;;;;;;;;;;;;6061624;23;8595;-79
2022/08/14 15:57:47;;;;;;;;;;;;;;;;;;6061109;23;8960;-79
2022/08/14 16:02:56;;;;;;;;;;;;;;;;;;6038752;23;6992;-78
2022/08/14 16:05:24;;;;;;;;;;;;;;;;;;6037227;23;8512;-79
2022/08/14 16:07:50;;;;;;;;;;;;;;;;;;6062746;23;8621;-78
2022/08/14 16:10:15;;;;;;;;;;;;;;;;;;6062241;23;8717;-80
2022/08/14 16:12:41;;;;;;;;;;;;;;;;;;6061754;23;8582;-79
2022/08/14 16:15:06;;;;;;;;;;;;;;;;;;6063405;23;8847;-78
2022/08/14 16:17:35;;;;;;;;;;;;;;;;;;6062922;23;9738;-77
2022/08/14 16:20:03;;;;;;;;;;;;;;;;;;6063269;23;8476;-79
2022/08/14 16:22:31;;;;;;;;;;;;;;;;;;6064936;23;7304;-79
2022/08/14 16:24:56;;;;;;;;;;;;;;;;;;6065676;23;8863;-79
2022/08/14 16:27:23;;;;;;;;;;;;;;;;;;6065411;23;9402;-79
2022/08/14 16:29:48;;;;;;;;;;;;;;;;;;6066051;23;8727;-79
2022/08/14 16:32:16;;;;;;;;;;;;;;;;;;6065859;23;8478;-79
2022/08/14 16:34:42;;;;;;;;;;;;;;;;;;6065480;23;8702;-79
2022/08/14 16:37:14;;;;;;;;;;;;;;;;;;6065602;23;8618;-78
2022/08/14 16:39:41;;;;;;;;;;;;;;;;;;6065719;23;8781;-79
2022/08/14 16:42:09;;;;;;;;;;;;;;;;;;6066049;23;8511;-81
2022/08/14 16:44:38;;;;;;;;;;;;;;;;;;6065468;23;7102;-81
2022/08/14 16:47:11;;;;;;;;;;;;;;;;;;6065473;23;8569;-81
2022/08/14 16:49:41;;;;;;;;;;;;;;;;;;6065166;23;8763;-82
2022/08/14 16:52:09;;;;;;;;;;;;;;;;;;6065576;23;8530;-81
2022/08/14 16:54:35;;;;;;;;;;;;;;;;;;6065620;23;9102;-80
2022/08/14 16:57:30;;;;;;;;;;;;;;;;;;6066164;23;8806;-81
2022/08/14 17:00:01;;;;;;;;;;;;;;;;;;6041338;23;7375;-81
2022/08/14 17:02:34;;;;;;;;;;;;;;;;;;6065416;23;8591;-80
2022/08/14 17:05:23;;;;;;;;;;;;;;;;;;6065187;23;7404;-82
2022/08/14 17:08:07;;;;;;;;;;;;;;;;;;6050925;23;8499;-80
2022/08/14 17:10:42;;;;;;;;;;;;;;;;;;6041488;23;8997;-80
2022/08/14 17:13:27;;;;;;;;;;;;;;;;;;6041744;23;8557;-82
2022/08/14 17:16:03;;;;;;;;;;;;;;;;;;6065309;23;8493;-81
2022/08/14 17:18:56;;;;;;;;;;;;;;;;;;6041445;23;8686;-78
2022/08/14 17:21:24;;;;;;;;;;;;;;;;;;6060587;23;9167;-81
2022/08/14 17:23:51;;;;;;;;;;;;;;;;;;6065238;23;8531;-81
2022/08/14 17:26:43;;;;;;;;;;;;;;;;;;6041015;23;9067;-81
2022/08/14 17:29:08;;;;;;;;;;;;;;;;;;6059670;23;8500;-81
2022/08/14 17:31:34;;;;;;;;;;;;;;;;;;6041163;23;9427;-81
2022/08/14 17:34:01;;;;;;;;;;;;;;;;;;6064966;23;8560;-80
2022/08/14 17:36:28;;;;;;;;;;;;;;;;;;6064984;23;8941;-82